sensor_id;sensor_type;location;lat;lon;timestamp;P1;durP1;ratioP1;P2;durP2;ratioP2
47625;SDS011;33342;45.574;9.252;2023-04-03T00:01:19;11.40;;;8.45;;
47625;SDS011;33342;45.574;9.252;2023-04-03T00:03:46;11.95;;;6.68;;
47625;SDS011;33342;45.574;9.252;2023-04-03T00:06:14;9.55;;;6.38;;
47625;SDS011;33342;45.574;9.252;2023-04-03T00:08:41;12.63;;;7.15;;
47625;SDS011;33342;45.574;9.252;2023-04-03T00:11:08;11.48;;;6.45;;
47625;SDS011;33342;45.574;9.252;2023-04-03T00:13:37;13.80;;;8.90;;
47625;SDS011;33342;45.574;9.252;2023-04-03T00:16:05;12.50;;;8.98;;
47625;SDS011;33342;45.574;9.252;2023-04-03T00:18:33;11.93;;;6.97;;
47625;SDS011;33342;45.574;9.252;2023-04-03T00:21:01;12.32;;;5.80;;
47625;SDS011;33342;45.574;9.252;2023-04-03T00:23:28;10.35;;;6.35;;
47625;SDS011;33342;45.574;9.252;2023-04-03T00:25:55;15.10;;;7.45;;
47625;SDS011;33342;45.574;9.252;2023-04-03T00:28:22;11.23;;;6.38;;
47625;SDS011;33342;45.574;9.252;2023-04-03T00:30:50;13.90;;;7.10;;
47625;SDS011;33342;45.574;9.252;2023-04-03T00:33:17;11.18;;;6.50;;
47625;SDS011;33342;45.574;9.252;2023-04-03T00:35:48;10.68;;;6.03;;
47625;SDS011;33342;45.574;9.252;2023-04-03T00:38:16;10.77;;;7.07;;
47625;SDS011;33342;45.574;9.252;2023-04-03T00:40:44;13.85;;;9.35;;
47625;SDS011;33342;45.574;9.252;2023-04-03T00:43:18;10.57;;;6.45;;
47625;SDS011;33342;45.574;9.252;2023-04-03T00:45:51;11.38;;;6.70;;
47625;SDS011;33342;45.574;9.252;2023-04-03T00:48:23;11.70;;;6.50;;
47625;SDS011;33342;45.574;9.252;2023-04-03T00:50:56;12.07;;;6.55;;
47625;SDS011;33342;45.574;9.252;2023-04-03T00:53:30;11.40;;;6.82;;
47625;SDS011;33342;45.574;9.252;2023-04-03T00:56:06;9.85;;;5.70;;
47625;SDS011;33342;45.574;9.252;2023-04-03T00:58:37;9.32;;;5.50;;
47625;SDS011;33342;45.574;9.252;2023-04-03T01:01:10;10.45;;;4.97;;
47625;SDS011;33342;45.574;9.252;2023-04-03T01:03:40;8.45;;;5.00;;
47625;SDS011;33342;45.574;9.252;2023-04-03T01:06:08;10.05;;;5.68;;
47625;SDS011;33342;45.574;9.252;2023-04-03T01:08:36;14.23;;;6.05;;
47625;SDS011;33342;45.574;9.252;2023-04-03T01:11:03;14.60;;;5.57;;
47625;SDS011;33342;45.574;9.252;2023-04-03T01:13:31;9.85;;;5.45;;
47625;SDS011;33342;45.574;9.252;2023-04-03T01:16:02;10.75;;;5.43;;
47625;SDS011;33342;45.574;9.252;2023-04-03T01:18:32;9.00;;;5.18;;
47625;SDS011;33342;45.574;9.252;2023-04-03T01:26:47;11.60;;;5.22;;
47625;SDS011;33342;45.574;9.252;2023-04-03T01:29:15;16.20;;;5.38;;
47625;SDS011;33342;45.574;9.252;2023-04-03T01:34:20;9.65;;;5.03;;
47625;SDS011;33342;45.574;9.252;2023-04-03T01:36:48;10.18;;;5.78;;
47625;SDS011;33342;45.574;9.252;2023-04-03T01:39:15;10.40;;;5.60;;
47625;SDS011;33342;45.574;9.252;2023-04-03T01:41:42;10.40;;;7.30;;
47625;SDS011;33342;45.574;9.252;2023-04-03T01:44:14;9.13;;;5.15;;
47625;SDS011;33342;45.574;9.252;2023-04-03T01:46:42;11.45;;;5.22;;
47625;SDS011;33342;45.574;9.252;2023-04-03T01:49:09;8.90;;;4.80;;
47625;SDS011;33342;45.574;9.252;2023-04-03T01:51:36;9.43;;;5.30;;
47625;SDS011;33342;45.574;9.252;2023-04-03T01:54:03;9.32;;;5.28;;
47625;SDS011;33342;45.574;9.252;2023-04-03T01:56:30;10.98;;;5.65;;
47625;SDS011;33342;45.574;9.252;2023-04-03T01:58:57;11.27;;;6.32;;
47625;SDS011;33342;45.574;9.252;2023-04-03T02:01:24;12.00;;;6.43;;
47625;SDS011;33342;45.574;9.252;2023-04-03T02:03:52;12.95;;;6.63;;
47625;SDS011;33342;45.574;9.252;2023-04-03T02:06:19;14.75;;;6.45;;
47625;SDS011;33342;45.574;9.252;2023-04-03T02:08:46;11.48;;;6.15;;
47625;SDS011;33342;45.574;9.252;2023-04-03T02:11:13;13.10;;;6.50;;
47625;SDS011;33342;45.574;9.252;2023-04-03T02:13:40;11.45;;;6.75;;
47625;SDS011;33342;45.574;9.252;2023-04-03T02:16:08;12.38;;;6.65;;
47625;SDS011;33342;45.574;9.252;2023-04-03T02:18:36;11.18;;;6.63;;
47625;SDS011;33342;45.574;9.252;2023-04-03T02:21:04;11.57;;;6.70;;
47625;SDS011;33342;45.574;9.252;2023-04-03T02:23:31;13.93;;;7.38;;
47625;SDS011;33342;45.574;9.252;2023-04-03T02:26:32;14.75;;;6.30;;
47625;SDS011;33342;45.574;9.252;2023-04-03T02:28:52;13.50;;;8.10;;
47625;SDS011;33342;45.574;9.252;2023-04-03T02:31:19;13.43;;;6.50;;
47625;SDS011;33342;45.574;9.252;2023-04-03T02:33:47;13.13;;;6.60;;
47625;SDS011;33342;45.574;9.252;2023-04-03T02:36:15;11.15;;;6.72;;
47625;SDS011;33342;45.574;9.252;2023-04-03T02:38:47;11.52;;;6.28;;
47625;SDS011;33342;45.574;9.252;2023-04-03T02:41:14;12.20;;;6.43;;
47625;SDS011;33342;45.574;9.252;2023-04-03T02:43:42;14.73;;;6.60;;
47625;SDS011;33342;45.574;9.252;2023-04-03T02:46:09;12.27;;;6.03;;
47625;SDS011;33342;45.574;9.252;2023-04-03T02:48:36;12.20;;;6.80;;
47625;SDS011;33342;45.574;9.252;2023-04-03T02:51:03;13.35;;;7.00;;
47625;SDS011;33342;45.574;9.252;2023-04-03T02:53:30;11.30;;;6.45;;
47625;SDS011;33342;45.574;9.252;2023-04-03T02:56:02;10.75;;;6.40;;
47625;SDS011;33342;45.574;9.252;2023-04-03T02:58:30;12.07;;;6.32;;
47625;SDS011;33342;45.574;9.252;2023-04-03T03:00:58;11.27;;;6.53;;
47625;SDS011;33342;45.574;9.252;2023-04-03T03:03:25;12.48;;;6.05;;
47625;SDS011;33342;45.574;9.252;2023-04-03T03:06:06;11.27;;;6.82;;
47625;SDS011;33342;45.574;9.252;2023-04-03T03:08:35;12.25;;;6.55;;
47625;SDS011;33342;45.574;9.252;2023-04-03T03:11:03;9.40;;;6.15;;
47625;SDS011;33342;45.574;9.252;2023-04-03T03:13:32;13.35;;;6.32;;
47625;SDS011;33342;45.574;9.252;2023-04-03T03:15:59;14.30;;;7.00;;
47625;SDS011;33342;45.574;9.252;2023-04-03T03:18:27;16.25;;;7.00;;
47625;SDS011;33342;45.574;9.252;2023-04-03T03:20:58;14.63;;;6.57;;
47625;SDS011;33342;45.574;9.252;2023-04-03T03:23:26;12.55;;;6.88;;
47625;SDS011;33342;45.574;9.252;2023-04-03T03:25:58;13.98;;;6.93;;
47625;SDS011;33342;45.574;9.252;2023-04-03T03:28:27;14.55;;;6.95;;
47625;SDS011;33342;45.574;9.252;2023-04-03T03:30:54;13.18;;;6.47;;
47625;SDS011;33342;45.574;9.252;2023-04-03T03:33:22;11.02;;;6.40;;
47625;SDS011;33342;45.574;9.252;2023-04-03T03:35:49;13.30;;;6.55;;
47625;SDS011;33342;45.574;9.252;2023-04-03T03:38:16;13.23;;;6.85;;
47625;SDS011;33342;45.574;9.252;2023-04-03T03:40:43;11.50;;;7.10;;
47625;SDS011;33342;45.574;9.252;2023-04-03T03:43:10;13.93;;;7.40;;
47625;SDS011;33342;45.574;9.252;2023-04-03T03:45:38;15.57;;;6.53;;
47625;SDS011;33342;45.574;9.252;2023-04-03T03:48:05;12.75;;;7.18;;
47625;SDS011;33342;45.574;9.252;2023-04-03T03:50:32;11.40;;;6.43;;
47625;SDS011;33342;45.574;9.252;2023-04-03T03:53:00;14.18;;;6.72;;
47625;SDS011;33342;45.574;9.252;2023-04-03T03:55:27;11.15;;;6.22;;
47625;SDS011;33342;45.574;9.252;2023-04-03T03:57:56;11.27;;;6.30;;
47625;SDS011;33342;45.574;9.252;2023-04-03T04:00:24;10.23;;;6.40;;
47625;SDS011;33342;45.574;9.252;2023-04-03T04:02:54;12.15;;;6.38;;
47625;SDS011;33342;45.574;9.252;2023-04-03T04:05:25;12.25;;;6.43;;
47625;SDS011;33342;45.574;9.252;2023-04-03T04:07:53;11.73;;;6.55;;
47625;SDS011;33342;45.574;9.252;2023-04-03T04:10:21;12.15;;;6.03;;
47625;SDS011;33342;45.574;9.252;2023-04-03T04:12:48;10.70;;;6.03;;
47625;SDS011;33342;45.574;9.252;2023-04-03T04:15:21;12.65;;;5.72;;
47625;SDS011;33342;45.574;9.252;2023-04-03T04:17:48;12.43;;;6.15;;
47625;SDS011;33342;45.574;9.252;2023-04-03T04:20:15;10.73;;;6.80;;
47625;SDS011;33342;45.574;9.252;2023-04-03T04:22:43;12.38;;;6.05;;
47625;SDS011;33342;45.574;9.252;2023-04-03T04:25:11;12.85;;;6.88;;
47625;SDS011;33342;45.574;9.252;2023-04-03T04:27:39;13.73;;;6.00;;
47625;SDS011;33342;45.574;9.252;2023-04-03T04:30:06;10.93;;;6.30;;
47625;SDS011;33342;45.574;9.252;2023-04-03T04:32:34;11.38;;;6.60;;
47625;SDS011;33342;45.574;9.252;2023-04-03T04:35:02;12.23;;;6.43;;
47625;SDS011;33342;45.574;9.252;2023-04-03T04:37:32;11.48;;;6.47;;
47625;SDS011;33342;45.574;9.252;2023-04-03T04:40:00;13.38;;;6.95;;
47625;SDS011;33342;45.574;9.252;2023-04-03T04:42:27;10.48;;;6.07;;
47625;SDS011;33342;45.574;9.252;2023-04-03T04:44:54;10.40;;;5.50;;
47625;SDS011;33342;45.574;9.252;2023-04-03T04:47:22;12.38;;;7.18;;
47625;SDS011;33342;45.574;9.252;2023-04-03T04:49:50;11.85;;;5.85;;
47625;SDS011;33342;45.574;9.252;2023-04-03T04:52:17;13.35;;;6.43;;
47625;SDS011;33342;45.574;9.252;2023-04-03T04:54:44;10.77;;;5.75;;
47625;SDS011;33342;45.574;9.252;2023-04-03T04:57:11;10.75;;;5.68;;
47625;SDS011;33342;45.574;9.252;2023-04-03T04:59:38;11.65;;;6.32;;
47625;SDS011;33342;45.574;9.252;2023-04-03T05:02:06;11.80;;;6.13;;
47625;SDS011;33342;45.574;9.252;2023-04-03T05:04:34;13.70;;;6.13;;
47625;SDS011;33342;45.574;9.252;2023-04-03T05:07:07;13.95;;;6.47;;
47625;SDS011;33342;45.574;9.252;2023-04-03T05:09:36;10.63;;;6.18;;
47625;SDS011;33342;45.574;9.252;2023-04-03T05:12:04;11.68;;;5.97;;
47625;SDS011;33342;45.574;9.252;2023-04-03T05:14:37;17.02;;;6.32;;
47625;SDS011;33342;45.574;9.252;2023-04-03T05:17:06;11.35;;;6.82;;
47625;SDS011;33342;45.574;9.252;2023-04-03T05:19:37;12.77;;;6.80;;
47625;SDS011;33342;45.574;9.252;2023-04-03T05:22:05;12.68;;;6.82;;
47625;SDS011;33342;45.574;9.252;2023-04-03T05:24:33;14.35;;;6.68;;
47625;SDS011;33342;45.574;9.252;2023-04-03T05:27:01;15.02;;;7.35;;
47625;SDS011;33342;45.574;9.252;2023-04-03T05:29:30;15.52;;;6.80;;
47625;SDS011;33342;45.574;9.252;2023-04-03T05:31:59;13.35;;;6.60;;
47625;SDS011;33342;45.574;9.252;2023-04-03T05:34:26;12.95;;;6.07;;
47625;SDS011;33342;45.574;9.252;2023-04-03T05:36:55;13.77;;;6.85;;
47625;SDS011;33342;45.574;9.252;2023-04-03T05:39:23;14.05;;;7.13;;
47625;SDS011;33342;45.574;9.252;2023-04-03T05:41:51;10.18;;;5.82;;
47625;SDS011;33342;45.574;9.252;2023-04-03T05:44:19;12.13;;;6.93;;
47625;SDS011;33342;45.574;9.252;2023-04-03T05:46:48;14.48;;;7.10;;
47625;SDS011;33342;45.574;9.252;2023-04-03T05:49:15;12.10;;;7.20;;
47625;SDS011;33342;45.574;9.252;2023-04-03T05:51:43;16.50;;;7.50;;
47625;SDS011;33342;45.574;9.252;2023-04-03T05:54:26;10.50;;;6.18;;
47625;SDS011;33342;45.574;9.252;2023-04-03T05:57:04;12.35;;;7.40;;
47625;SDS011;33342;45.574;9.252;2023-04-03T05:59:31;14.15;;;7.38;;
47625;SDS011;33342;45.574;9.252;2023-04-03T06:01:59;14.95;;;8.38;;
47625;SDS011;33342;45.574;9.252;2023-04-03T06:04:27;14.82;;;7.50;;
47625;SDS011;33342;45.574;9.252;2023-04-03T06:06:55;14.43;;;7.20;;
47625;SDS011;33342;45.574;9.252;2023-04-03T06:09:27;13.00;;;6.95;;
47625;SDS011;33342;45.574;9.252;2023-04-03T06:11:58;12.30;;;6.45;;
47625;SDS011;33342;45.574;9.252;2023-04-03T06:14:27;14.48;;;6.30;;
47625;SDS011;33342;45.574;9.252;2023-04-03T06:16:54;13.23;;;5.70;;
47625;SDS011;33342;45.574;9.252;2023-04-03T06:19:22;10.93;;;5.43;;
47625;SDS011;33342;45.574;9.252;2023-04-03T06:21:52;10.73;;;5.43;;
47625;SDS011;33342;45.574;9.252;2023-04-03T06:24:19;10.88;;;5.03;;
47625;SDS011;33342;45.574;9.252;2023-04-03T06:26:49;17.00;;;5.22;;
47625;SDS011;33342;45.574;9.252;2023-04-03T06:29:17;11.88;;;6.30;;
47625;SDS011;33342;45.574;9.252;2023-04-03T06:31:47;13.55;;;6.72;;
47625;SDS011;33342;45.574;9.252;2023-04-03T06:34:15;12.05;;;5.35;;
47625;SDS011;33342;45.574;9.252;2023-04-03T06:36:44;11.05;;;5.63;;
47625;SDS011;33342;45.574;9.252;2023-04-03T06:39:16;12.25;;;5.78;;
47625;SDS011;33342;45.574;9.252;2023-04-03T06:41:49;11.32;;;5.60;;
47625;SDS011;33342;45.574;9.252;2023-04-03T06:44:24;9.98;;;4.97;;
47625;SDS011;33342;45.574;9.252;2023-04-03T06:46:51;13.60;;;6.47;;
47625;SDS011;33342;45.574;9.252;2023-04-03T06:49:20;12.77;;;5.10;;
47625;SDS011;33342;45.574;9.252;2023-04-03T06:51:47;10.07;;;5.63;;
47625;SDS011;33342;45.574;9.252;2023-04-03T06:54:14;10.52;;;5.10;;
47625;SDS011;33342;45.574;9.252;2023-04-03T06:56:41;8.70;;;4.43;;
47625;SDS011;33342;45.574;9.252;2023-04-03T06:59:09;12.60;;;4.75;;
47625;SDS011;33342;45.574;9.252;2023-04-03T07:01:39;8.10;;;4.40;;
47625;SDS011;33342;45.574;9.252;2023-04-03T07:04:07;12.55;;;4.53;;
47625;SDS011;33342;45.574;9.252;2023-04-03T07:06:35;13.60;;;5.10;;
47625;SDS011;33342;45.574;9.252;2023-04-03T07:09:02;11.75;;;4.28;;
47625;SDS011;33342;45.574;9.252;2023-04-03T07:11:29;7.85;;;4.18;;
47625;SDS011;33342;45.574;9.252;2023-04-03T07:13:56;8.70;;;4.40;;
47625;SDS011;33342;45.574;9.252;2023-04-03T07:16:24;10.48;;;3.90;;
47625;SDS011;33342;45.574;9.252;2023-04-03T07:18:51;9.73;;;4.82;;
47625;SDS011;33342;45.574;9.252;2023-04-03T07:21:18;10.05;;;3.75;;
47625;SDS011;33342;45.574;9.252;2023-04-03T07:23:45;7.53;;;4.03;;
47625;SDS011;33342;45.574;9.252;2023-04-03T07:26:17;9.35;;;3.75;;
47625;SDS011;33342;45.574;9.252;2023-04-03T07:28:44;7.95;;;3.72;;
47625;SDS011;33342;45.574;9.252;2023-04-03T07:31:14;8.98;;;4.20;;
47625;SDS011;33342;45.574;9.252;2023-04-03T07:33:42;7.63;;;3.72;;
47625;SDS011;33342;45.574;9.252;2023-04-03T07:36:10;7.43;;;3.20;;
47625;SDS011;33342;45.574;9.252;2023-04-03T07:38:40;11.10;;;3.83;;
47625;SDS011;33342;45.574;9.252;2023-04-03T07:41:10;9.02;;;4.10;;
47625;SDS011;33342;45.574;9.252;2023-04-03T07:43:40;10.45;;;4.95;;
47625;SDS011;33342;45.574;9.252;2023-04-03T07:46:07;8.82;;;4.57;;
47625;SDS011;33342;45.574;9.252;2023-04-03T07:48:34;10.98;;;3.80;;
47625;SDS011;33342;45.574;9.252;2023-04-03T07:51:02;8.45;;;3.50;;
47625;SDS011;33342;45.574;9.252;2023-04-03T07:53:30;7.68;;;3.55;;
47625;SDS011;33342;45.574;9.252;2023-04-03T07:55:58;7.72;;;3.88;;
47625;SDS011;33342;45.574;9.252;2023-04-03T07:58:25;9.00;;;3.40;;
47625;SDS011;33342;45.574;9.252;2023-04-03T08:00:53;7.65;;;3.00;;
47625;SDS011;33342;45.574;9.252;2023-04-03T08:03:20;7.72;;;3.78;;
47625;SDS011;33342;45.574;9.252;2023-04-03T08:05:48;6.18;;;3.28;;
47625;SDS011;33342;45.574;9.252;2023-04-03T08:08:17;6.78;;;3.47;;
47625;SDS011;33342;45.574;9.252;2023-04-03T08:10:50;7.97;;;3.55;;
47625;SDS011;33342;45.574;9.252;2023-04-03T08:13:19;8.13;;;3.60;;
47625;SDS011;33342;45.574;9.252;2023-04-03T08:15:47;8.45;;;3.83;;
47625;SDS011;33342;45.574;9.252;2023-04-03T08:18:14;13.20;;;3.53;;
47625;SDS011;33342;45.574;9.252;2023-04-03T08:20:42;8.50;;;4.43;;
47625;SDS011;33342;45.574;9.252;2023-04-03T08:23:09;8.02;;;3.35;;
47625;SDS011;33342;45.574;9.252;2023-04-03T08:25:37;6.13;;;3.33;;
47625;SDS011;33342;45.574;9.252;2023-04-03T08:28:08;9.75;;;3.63;;
47625;SDS011;33342;45.574;9.252;2023-04-03T08:30:35;5.88;;;3.08;;
47625;SDS011;33342;45.574;9.252;2023-04-03T08:33:05;5.80;;;2.78;;
47625;SDS011;33342;45.574;9.252;2023-04-03T08:35:32;7.95;;;3.15;;
47625;SDS011;33342;45.574;9.252;2023-04-03T08:38:01;7.22;;;2.90;;
47625;SDS011;33342;45.574;9.252;2023-04-03T08:40:29;7.93;;;4.15;;
47625;SDS011;33342;45.574;9.252;2023-04-03T08:48:20;7.15;;;3.13;;
47625;SDS011;33342;45.574;9.252;2023-04-03T08:50:58;7.65;;;3.15;;
47625;SDS011;33342;45.574;9.252;2023-04-03T08:53:32;8.32;;;3.22;;
47625;SDS011;33342;45.574;9.252;2023-04-03T08:56:05;8.82;;;4.90;;
47625;SDS011;33342;45.574;9.252;2023-04-03T08:58:49;7.03;;;3.38;;
47625;SDS011;33342;45.574;9.252;2023-04-03T09:01:34;6.15;;;3.22;;
47625;SDS011;33342;45.574;9.252;2023-04-03T09:04:11;7.13;;;3.55;;
47625;SDS011;33342;45.574;9.252;2023-04-03T09:06:42;8.25;;;3.20;;
47625;SDS011;33342;45.574;9.252;2023-04-03T09:09:32;6.30;;;3.25;;
47625;SDS011;33342;45.574;9.252;2023-04-03T09:22:57;7.72;;;3.28;;
47625;SDS011;33342;45.574;9.252;2023-04-03T09:25:29;8.27;;;5.25;;
47625;SDS011;33342;45.574;9.252;2023-04-03T09:28:00;6.32;;;3.17;;
47625;SDS011;33342;45.574;9.252;2023-04-03T09:30:28;5.80;;;3.33;;
47625;SDS011;33342;45.574;9.252;2023-04-03T09:32:55;8.50;;;3.80;;
47625;SDS011;33342;45.574;9.252;2023-04-03T09:35:24;7.13;;;3.25;;
47625;SDS011;33342;45.574;9.252;2023-04-03T09:43:29;6.43;;;2.90;;
47625;SDS011;33342;45.574;9.252;2023-04-03T09:46:43;8.48;;;3.22;;
47625;SDS011;33342;45.574;9.252;2023-04-03T09:49:01;6.53;;;2.95;;
47625;SDS011;33342;45.574;9.252;2023-04-03T09:51:35;9.40;;;3.50;;
47625;SDS011;33342;45.574;9.252;2023-04-03T09:56:57;7.57;;;3.60;;
47625;SDS011;33342;45.574;9.252;2023-04-03T09:59:33;9.05;;;4.65;;
47625;SDS011;33342;45.574;9.252;2023-04-03T10:02:17;6.30;;;3.60;;
47625;SDS011;33342;45.574;9.252;2023-04-03T10:04:53;6.68;;;3.42;;
47625;SDS011;33342;45.574;9.252;2023-04-03T10:07:35;9.80;;;4.15;;
47625;SDS011;33342;45.574;9.252;2023-04-03T10:10:20;8.75;;;3.80;;
47625;SDS011;33342;45.574;9.252;2023-04-03T10:13:03;6.85;;;4.50;;
47625;SDS011;33342;45.574;9.252;2023-04-03T10:15:36;7.35;;;3.42;;
47625;SDS011;33342;45.574;9.252;2023-04-03T10:20:52;7.45;;;4.40;;
47625;SDS011;33342;45.574;9.252;2023-04-03T10:28:52;8.18;;;3.30;;
47625;SDS011;33342;45.574;9.252;2023-04-03T10:31:51;6.40;;;3.22;;
47625;SDS011;33342;45.574;9.252;2023-04-03T10:34:39;6.50;;;3.53;;
47625;SDS011;33342;45.574;9.252;2023-04-03T10:37:24;7.32;;;3.92;;
47625;SDS011;33342;45.574;9.252;2023-04-03T10:40:01;7.47;;;3.33;;
47625;SDS011;33342;45.574;9.252;2023-04-03T10:45:24;6.40;;;3.42;;
47625;SDS011;33342;45.574;9.252;2023-04-03T10:48:16;7.85;;;3.53;;
47625;SDS011;33342;45.574;9.252;2023-04-03T10:51:06;6.35;;;3.50;;
47625;SDS011;33342;45.574;9.252;2023-04-03T10:53:54;6.65;;;2.80;;
47625;SDS011;33342;45.574;9.252;2023-04-03T10:59:28;6.65;;;2.83;;
47625;SDS011;33342;45.574;9.252;2023-04-03T11:04:42;7.28;;;3.88;;
47625;SDS011;33342;45.574;9.252;2023-04-03T11:07:15;6.65;;;3.42;;
47625;SDS011;33342;45.574;9.252;2023-04-03T11:09:48;6.32;;;3.85;;
47625;SDS011;33342;45.574;9.252;2023-04-03T11:15:11;9.82;;;4.90;;
47625;SDS011;33342;45.574;9.252;2023-04-03T11:17:45;11.20;;;4.27;;
47625;SDS011;33342;45.574;9.252;2023-04-03T11:20:21;8.57;;;3.70;;
47625;SDS011;33342;45.574;9.252;2023-04-03T11:22:57;7.18;;;2.90;;
47625;SDS011;33342;45.574;9.252;2023-04-03T11:25:44;6.53;;;2.72;;
47625;SDS011;33342;45.574;9.252;2023-04-03T11:28:15;5.68;;;2.95;;
47625;SDS011;33342;45.574;9.252;2023-04-03T11:30:48;7.10;;;3.15;;
47625;SDS011;33342;45.574;9.252;2023-04-03T11:36:32;6.50;;;2.95;;
47625;SDS011;33342;45.574;9.252;2023-04-03T11:39:10;6.22;;;3.05;;
47625;SDS011;33342;45.574;9.252;2023-04-03T11:41:53;7.63;;;3.22;;
47625;SDS011;33342;45.574;9.252;2023-04-03T11:44:37;8.70;;;3.03;;
47625;SDS011;33342;45.574;9.252;2023-04-03T11:47:05;7.72;;;3.85;;
47625;SDS011;33342;45.574;9.252;2023-04-03T12:03:29;8.98;;;3.03;;
47625;SDS011;33342;45.574;9.252;2023-04-03T12:13:40;7.45;;;3.22;;
47625;SDS011;33342;45.574;9.252;2023-04-03T12:18:55;4.78;;;2.72;;
47625;SDS011;33342;45.574;9.252;2023-04-03T12:24:23;7.72;;;2.90;;
47625;SDS011;33342;45.574;9.252;2023-04-03T12:29:46;5.80;;;3.00;;
47625;SDS011;33342;45.574;9.252;2023-04-03T12:45:52;9.93;;;6.78;;
47625;SDS011;33342;45.574;9.252;2023-04-03T12:48:39;4.95;;;2.10;;
47625;SDS011;33342;45.574;9.252;2023-04-03T12:51:19;5.38;;;2.42;;
47625;SDS011;33342;45.574;9.252;2023-04-03T12:54:02;4.43;;;2.33;;
47625;SDS011;33342;45.574;9.252;2023-04-03T12:56:39;5.18;;;2.33;;
47625;SDS011;33342;45.574;9.252;2023-04-03T12:59:18;5.97;;;2.70;;
47625;SDS011;33342;45.574;9.252;2023-04-03T13:01:52;5.03;;;2.35;;
47625;SDS011;33342;45.574;9.252;2023-04-03T13:04:24;6.18;;;2.60;;
47625;SDS011;33342;45.574;9.252;2023-04-03T13:06:53;5.55;;;2.30;;
47625;SDS011;33342;45.574;9.252;2023-04-03T13:09:25;4.43;;;2.20;;
47625;SDS011;33342;45.574;9.252;2023-04-03T13:12:00;7.32;;;2.30;;
47625;SDS011;33342;45.574;9.252;2023-04-03T13:14:30;7.32;;;2.80;;
47625;SDS011;33342;45.574;9.252;2023-04-03T13:16:58;6.25;;;2.40;;
47625;SDS011;33342;45.574;9.252;2023-04-03T13:19:29;6.30;;;2.50;;
47625;SDS011;33342;45.574;9.252;2023-04-03T13:22:41;7.55;;;2.33;;
47625;SDS011;33342;45.574;9.252;2023-04-03T13:24:57;5.18;;;2.10;;
47625;SDS011;33342;45.574;9.252;2023-04-03T13:27:29;4.72;;;2.25;;
47625;SDS011;33342;45.574;9.252;2023-04-03T13:29:58;4.93;;;2.53;;
47625;SDS011;33342;45.574;9.252;2023-04-03T13:32:27;7.05;;;2.40;;
47625;SDS011;33342;45.574;9.252;2023-04-03T13:34:56;6.68;;;2.33;;
47625;SDS011;33342;45.574;9.252;2023-04-03T13:37:32;6.60;;;2.88;;
47625;SDS011;33342;45.574;9.252;2023-04-03T13:42:35;5.43;;;2.15;;
47625;SDS011;33342;45.574;9.252;2023-04-03T13:45:29;7.90;;;2.42;;
47625;SDS011;33342;45.574;9.252;2023-04-03T13:48:08;5.53;;;2.25;;
47625;SDS011;33342;45.574;9.252;2023-04-03T13:50:53;5.50;;;2.10;;
47625;SDS011;33342;45.574;9.252;2023-04-03T13:53:21;7.30;;;2.40;;
47625;SDS011;33342;45.574;9.252;2023-04-03T13:56:16;5.47;;;2.25;;
47625;SDS011;33342;45.574;9.252;2023-04-03T13:58:52;5.95;;;2.47;;
47625;SDS011;33342;45.574;9.252;2023-04-03T14:01:25;7.50;;;2.40;;
47625;SDS011;33342;45.574;9.252;2023-04-03T14:04:01;5.10;;;2.40;;
47625;SDS011;33342;45.574;9.252;2023-04-03T14:06:38;6.20;;;2.40;;
47625;SDS011;33342;45.574;9.252;2023-04-03T14:09:06;4.53;;;2.00;;
47625;SDS011;33342;45.574;9.252;2023-04-03T14:11:33;6.47;;;2.08;;
47625;SDS011;33342;45.574;9.252;2023-04-03T14:14:02;6.88;;;2.38;;
47625;SDS011;33342;45.574;9.252;2023-04-03T14:16:37;5.17;;;2.27;;
47625;SDS011;33342;45.574;9.252;2023-04-03T14:19:09;5.15;;;2.40;;
47625;SDS011;33342;45.574;9.252;2023-04-03T14:21:44;6.53;;;2.17;;
47625;SDS011;33342;45.574;9.252;2023-04-03T14:24:11;5.40;;;2.40;;
47625;SDS011;33342;45.574;9.252;2023-04-03T14:26:38;9.55;;;6.30;;
47625;SDS011;33342;45.574;9.252;2023-04-03T14:29:05;10.15;;;4.72;;
47625;SDS011;33342;45.574;9.252;2023-04-03T14:31:32;4.70;;;2.08;;
47625;SDS011;33342;45.574;9.252;2023-04-03T14:34:00;5.90;;;1.95;;
47625;SDS011;33342;45.574;9.252;2023-04-03T14:36:29;6.75;;;2.03;;
47625;SDS011;33342;45.574;9.252;2023-04-03T14:38:58;4.45;;;2.03;;
47625;SDS011;33342;45.574;9.252;2023-04-03T14:41:26;4.72;;;2.10;;
47625;SDS011;33342;45.574;9.252;2023-04-03T14:43:53;4.60;;;2.00;;
47625;SDS011;33342;45.574;9.252;2023-04-03T14:46:28;6.53;;;2.42;;
47625;SDS011;33342;45.574;9.252;2023-04-03T14:49:14;7.97;;;2.50;;
47625;SDS011;33342;45.574;9.252;2023-04-03T14:51:45;5.28;;;2.10;;
47625;SDS011;33342;45.574;9.252;2023-04-03T14:54:17;5.57;;;1.95;;
47625;SDS011;33342;45.574;9.252;2023-04-03T14:56:47;6.70;;;2.15;;
47625;SDS011;33342;45.574;9.252;2023-04-03T14:59:14;7.13;;;2.35;;
47625;SDS011;33342;45.574;9.252;2023-04-03T15:01:41;6.28;;;2.17;;
47625;SDS011;33342;45.574;9.252;2023-04-03T15:04:10;6.32;;;2.13;;
47625;SDS011;33342;45.574;9.252;2023-04-03T15:06:39;5.35;;;2.55;;
47625;SDS011;33342;45.574;9.252;2023-04-03T15:09:11;8.43;;;2.13;;
47625;SDS011;33342;45.574;9.252;2023-04-03T15:11:45;5.32;;;2.33;;
47625;SDS011;33342;45.574;9.252;2023-04-03T15:14:13;5.90;;;2.03;;
47625;SDS011;33342;45.574;9.252;2023-04-03T15:16:55;6.68;;;2.20;;
47625;SDS011;33342;45.574;9.252;2023-04-03T15:19:23;20.58;;;12.05;;
47625;SDS011;33342;45.574;9.252;2023-04-03T15:21:50;9.43;;;2.53;;
47625;SDS011;33342;45.574;9.252;2023-04-03T15:24:17;4.45;;;2.50;;
47625;SDS011;33342;45.574;9.252;2023-04-03T15:26:44;8.20;;;2.13;;
47625;SDS011;33342;45.574;9.252;2023-04-03T15:29:11;8.38;;;2.35;;
47625;SDS011;33342;45.574;9.252;2023-04-03T15:31:38;6.05;;;2.13;;
47625;SDS011;33342;45.574;9.252;2023-04-03T15:34:05;7.30;;;2.50;;
47625;SDS011;33342;45.574;9.252;2023-04-03T15:36:32;7.10;;;2.30;;
47625;SDS011;33342;45.574;9.252;2023-04-03T15:39:00;5.88;;;2.80;;
47625;SDS011;33342;45.574;9.252;2023-04-03T15:41:27;7.00;;;2.28;;
47625;SDS011;33342;45.574;9.252;2023-04-03T15:43:54;4.70;;;2.25;;
47625;SDS011;33342;45.574;9.252;2023-04-03T15:46:21;5.43;;;2.28;;
47625;SDS011;33342;45.574;9.252;2023-04-03T15:48:48;7.97;;;2.30;;
47625;SDS011;33342;45.574;9.252;2023-04-03T15:51:15;8.55;;;2.50;;
47625;SDS011;33342;45.574;9.252;2023-04-03T15:53:42;6.07;;;2.25;;
47625;SDS011;33342;45.574;9.252;2023-04-03T15:56:10;6.00;;;2.72;;
47625;SDS011;33342;45.574;9.252;2023-04-03T15:58:38;7.10;;;2.85;;
47625;SDS011;33342;45.574;9.252;2023-04-03T16:01:05;6.63;;;2.60;;
47625;SDS011;33342;45.574;9.252;2023-04-03T16:03:32;7.20;;;2.35;;
47625;SDS011;33342;45.574;9.252;2023-04-03T16:06:00;7.53;;;2.38;;
47625;SDS011;33342;45.574;9.252;2023-04-03T16:08:27;7.72;;;2.60;;
47625;SDS011;33342;45.574;9.252;2023-04-03T16:10:54;7.22;;;2.33;;
47625;SDS011;33342;45.574;9.252;2023-04-03T16:13:21;5.78;;;2.45;;
47625;SDS011;33342;45.574;9.252;2023-04-03T16:15:48;5.88;;;2.47;;
47625;SDS011;33342;45.574;9.252;2023-04-03T16:18:15;7.15;;;2.50;;
47625;SDS011;33342;45.574;9.252;2023-04-03T16:20:44;9.32;;;2.53;;
47625;SDS011;33342;45.574;9.252;2023-04-03T16:23:11;9.88;;;2.67;;
47625;SDS011;33342;45.574;9.252;2023-04-03T16:25:38;8.68;;;2.72;;
47625;SDS011;33342;45.574;9.252;2023-04-03T16:28:06;11.55;;;2.92;;
47625;SDS011;33342;45.574;9.252;2023-04-03T16:30:33;7.97;;;2.22;;
47625;SDS011;33342;45.574;9.252;2023-04-03T16:33:00;8.95;;;2.83;;
47625;SDS011;33342;45.574;9.252;2023-04-03T16:35:28;8.50;;;2.90;;
47625;SDS011;33342;45.574;9.252;2023-04-03T16:37:56;8.05;;;2.40;;
47625;SDS011;33342;45.574;9.252;2023-04-03T16:40:23;9.75;;;5.15;;
47625;SDS011;33342;45.574;9.252;2023-04-03T16:42:50;17.20;;;9.82;;